createdAt,value
2017-12-25T14:55:36.821Z,1008.88
2017-12-25T14:56:37.317Z,1008.88
2017-12-25T14:59:21.159Z,1008.87
2017-12-25T15:00:21.102Z,1008.89
2017-12-25T15:03:09.327Z,1008.88
2017-12-25T15:04:05.895Z,1008.83
2017-12-25T15:06:48.972Z,1008.76
2017-12-25T15:07:50.272Z,1008.75
2017-12-25T15:10:34.214Z,1008.66
2017-12-25T15:11:34.544Z,1008.69
2017-12-25T15:14:18.575Z,1008.70
2017-12-25T15:15:18.936Z,1008.76
2017-12-25T15:18:02.342Z,1008.69
2017-12-25T15:19:02.802Z,1008.69
2017-12-25T15:21:47.145Z,1008.62
2017-12-25T15:22:46.753Z,1008.67
2017-12-25T15:25:31.655Z,1008.63
2017-12-25T15:26:31.143Z,1008.64
2017-12-25T15:29:15.562Z,1008.61
2017-12-25T15:30:15.483Z,1008.65
2017-12-25T15:32:58.916Z,1008.62
2017-12-25T15:33:58.853Z,1008.62
2017-12-25T15:36:45.149Z,1008.58
2017-12-25T15:37:45.261Z,1008.57
2017-12-25T15:40:26.735Z,1008.51
2017-12-25T15:41:26.688Z,1008.52
2017-12-25T15:44:12.867Z,1008.49
2017-12-25T15:45:12.470Z,1008.46
2017-12-25T15:47:54.389Z,1008.39
2017-12-25T15:48:54.493Z,1008.41
2017-12-25T15:51:40.409Z,1008.38
2017-12-25T15:52:39.194Z,1008.39
2017-12-25T15:55:23.355Z,1008.34
2017-12-25T15:56:23.239Z,1008.38
2017-12-25T15:59:08.480Z,1008.40
2017-12-25T16:00:07.518Z,1008.36
2017-12-25T16:02:51.258Z,1008.41
2017-12-25T16:03:52.185Z,1008.41
2017-12-25T16:06:35.169Z,1008.44
2017-12-25T16:07:35.174Z,1008.39
2017-12-25T16:10:18.204Z,1008.35
2017-12-25T16:11:18.516Z,1008.36
2017-12-25T16:14:01.618Z,1008.43
2017-12-25T16:15:01.541Z,1008.38
2017-12-25T16:17:44.938Z,1008.28
2017-12-25T16:18:44.881Z,1008.26
2017-12-25T16:21:28.268Z,1008.27
2017-12-25T16:22:28.178Z,1008.23
2017-12-25T16:25:11.797Z,1008.22
2017-12-25T16:26:11.678Z,1008.23
2017-12-25T16:28:55.460Z,1008.17
2017-12-25T16:29:55.029Z,1008.15
2017-12-25T16:32:39.758Z,1008.16
2017-12-25T16:33:40.221Z,1008.15
2017-12-25T16:36:24.172Z,1008.13
2017-12-25T16:37:23.990Z,1008.11
2017-12-25T16:40:08.410Z,1008.11
2017-12-25T16:41:08.316Z,1008.05
2017-12-25T16:43:55.012Z,1007.97
2017-12-25T16:44:52.347Z,1008.00
2017-12-25T16:47:37.091Z,1007.99
2017-12-25T16:48:36.691Z,1007.96
2017-12-25T16:51:20.127Z,1007.95
2017-12-25T16:52:20.077Z,1007.95
2017-12-25T16:55:04.986Z,1007.93
2017-12-25T16:56:04.886Z,1007.91
2017-12-25T16:58:49.528Z,1007.89
2017-12-25T16:59:48.843Z,1007.91
2017-12-25T17:02:34.121Z,1007.93
2017-12-25T17:03:34.050Z,1007.91
2017-12-25T17:06:18.504Z,1007.87
2017-12-25T17:07:17.479Z,1007.93
2017-12-25T17:10:00.950Z,1007.81
2017-12-25T17:11:00.859Z,1007.76
2017-12-25T17:13:46.068Z,1007.75
2017-12-25T17:14:45.207Z,1007.78
2017-12-25T17:17:29.610Z,1007.81
2017-12-25T17:18:29.583Z,1007.78
2017-12-25T17:21:13.005Z,1007.80
2017-12-25T17:22:12.948Z,1007.75
2017-12-25T17:24:56.345Z,1007.71
2017-12-25T17:25:56.308Z,1007.68
2017-12-25T17:28:40.703Z,1007.70
2017-12-25T17:29:40.698Z,1007.68
2017-12-25T17:32:25.056Z,1007.67
2017-12-25T17:33:25.597Z,1007.61
2017-12-25T17:36:09.398Z,1007.60
2017-12-25T17:37:09.373Z,1007.61
2017-12-25T17:39:52.828Z,1007.52
2017-12-25T17:40:52.833Z,1007.54
2017-12-25T17:41:52.757Z,1007.51
2017-12-25T17:42:52.737Z,1007.53
2017-12-25T17:43:52.747Z,1007.53
2017-12-25T17:44:52.989Z,1007.50
2017-12-25T17:45:52.714Z,1007.48
2017-12-25T17:46:52.715Z,1007.49
2017-12-25T17:47:52.700Z,1007.48
2017-12-25T17:48:52.705Z,1007.52
2017-12-25T17:49:52.686Z,1007.46
2017-12-25T17:50:52.650Z,1007.49
2017-12-25T17:51:52.713Z,1007.49
2017-12-25T17:52:52.653Z,1007.43
2017-12-25T17:53:52.659Z,1007.44
2017-12-25T17:54:52.623Z,1007.45
2017-12-25T17:55:52.633Z,1007.43
2017-12-25T17:56:52.629Z,1007.43
2017-12-25T17:57:52.641Z,1007.40
2017-12-25T17:58:52.637Z,1007.38
2017-12-25T17:59:52.610Z,1007.34
2017-12-25T18:00:52.591Z,1007.38
2017-12-25T18:01:52.578Z,1007.36
2017-12-25T18:02:52.580Z,1007.33
2017-12-25T18:03:52.589Z,1007.35
2017-12-25T18:04:52.571Z,1007.31
2017-12-25T18:05:52.559Z,1007.27
2017-12-25T18:06:52.548Z,1007.30
2017-12-25T18:07:52.532Z,1007.27
2017-12-25T18:08:52.537Z,1007.26
2017-12-25T18:09:52.514Z,1007.25
2017-12-25T18:10:52.516Z,1007.24
2017-12-25T18:11:52.502Z,1007.23
2017-12-25T18:12:52.491Z,1007.21
2017-12-25T18:13:52.478Z,1007.24
2017-12-25T18:14:52.481Z,1007.16
2017-12-25T18:15:52.473Z,1007.19
2017-12-25T18:16:52.470Z,1007.13
2017-12-25T18:17:52.458Z,1007.11
2017-12-25T18:18:52.445Z,1007.10
2017-12-25T18:19:52.451Z,1007.05
2017-12-25T18:20:52.432Z,1007.05
2017-12-25T18:21:52.437Z,1007.00
2017-12-25T18:22:52.429Z,1007.02
2017-12-25T18:23:52.406Z,1006.98
2017-12-25T18:24:52.395Z,1006.98
2017-12-25T18:25:52.396Z,1006.95
2017-12-25T18:26:52.377Z,1006.95
2017-12-25T18:27:52.376Z,1006.87
2017-12-25T18:28:52.361Z,1006.83
2017-12-25T18:29:52.378Z,1006.83
2017-12-25T18:30:52.359Z,1006.76
2017-12-25T18:31:52.349Z,1006.74
2017-12-25T18:32:52.335Z,1006.68
2017-12-25T18:33:52.333Z,1006.65
2017-12-25T18:34:52.325Z,1006.61
2017-12-25T18:35:52.316Z,1006.53
2017-12-25T18:36:52.312Z,1006.52
2017-12-25T18:37:52.304Z,1006.44
2017-12-25T18:38:52.291Z,1006.43
2017-12-25T18:39:52.283Z,1006.40
2017-12-25T18:40:52.280Z,1006.31
2017-12-25T18:41:52.260Z,1006.40
2017-12-25T18:42:52.257Z,1006.39
2017-12-25T18:43:52.266Z,1006.45
2017-12-25T18:44:52.242Z,1006.49
2017-12-25T18:45:52.241Z,1006.47
2017-12-25T18:46:52.221Z,1006.46
2017-12-25T18:47:52.250Z,1006.42
2017-12-25T18:48:52.208Z,1006.41
2017-12-25T18:49:52.229Z,1006.40
2017-12-25T18:50:52.199Z,1006.34
2017-12-25T18:51:52.189Z,1006.32
2017-12-25T18:52:52.184Z,1006.29
2017-12-25T18:53:52.176Z,1006.31
2017-12-25T18:54:52.170Z,1006.36
2017-12-25T18:55:52.157Z,1006.34
2017-12-25T18:56:52.159Z,1006.33
2017-12-25T18:57:52.142Z,1006.36
2017-12-25T18:58:52.140Z,1006.33
2017-12-25T18:59:52.125Z,1006.32
2017-12-25T19:00:52.117Z,1006.36
2017-12-25T19:01:52.106Z,1006.30
2017-12-25T19:02:52.104Z,1006.25
2017-12-25T19:03:52.095Z,1006.17
2017-12-25T19:04:52.107Z,1006.20
2017-12-25T19:05:52.088Z,1006.21
2017-12-25T19:06:52.075Z,1006.27
2017-12-25T19:07:52.062Z,1006.21
2017-12-25T19:08:52.063Z,1006.21
2017-12-25T19:09:52.056Z,1006.14
2017-12-25T19:10:52.036Z,1006.14
2017-12-25T19:11:52.079Z,1006.10
2017-12-25T19:12:52.073Z,1006.09
2017-12-25T19:13:52.015Z,1006.07
2017-12-25T19:14:52.043Z,1006.01
2017-12-25T19:15:52.000Z,1005.97
2017-12-25T19:16:52.010Z,1005.95
2017-12-25T19:17:52.831Z,1005.96
2017-12-25T19:18:52.871Z,1005.92
2017-12-25T19:19:52.002Z,1005.89
2017-12-25T19:20:51.971Z,1005.86
2017-12-25T19:21:51.965Z,1005.88
2017-12-25T19:22:51.964Z,1005.89
2017-12-25T19:23:52.869Z,1005.86
2017-12-25T19:24:51.975Z,1005.94
2017-12-25T19:25:51.972Z,1005.95
2017-12-25T19:26:51.946Z,1005.95
2017-12-25T19:27:51.961Z,1005.95
2017-12-25T19:28:51.960Z,1005.98
2017-12-25T19:29:51.910Z,1005.97
2017-12-25T19:30:51.887Z,1006.13
2017-12-25T19:31:51.882Z,1006.04
2017-12-25T19:32:51.928Z,1006.03
2017-12-25T19:33:51.943Z,1005.99
2017-12-25T19:34:51.980Z,1005.97
2017-12-25T19:35:51.868Z,1005.99
2017-12-25T19:36:51.839Z,1005.98
2017-12-25T19:37:51.848Z,1005.92
2017-12-25T19:38:51.857Z,1005.88
2017-12-25T19:39:51.835Z,1005.83
2017-12-25T19:40:51.832Z,1005.80
2017-12-25T19:41:51.805Z,1005.74
2017-12-25T19:42:51.829Z,1005.72
2017-12-25T19:43:51.782Z,1005.68
2017-12-25T19:44:52.355Z,1005.68
2017-12-25T19:45:51.788Z,1005.66
2017-12-25T19:46:51.760Z,1005.66
2017-12-25T19:47:51.761Z,1005.63
2017-12-25T19:48:51.791Z,1005.62
2017-12-25T19:49:51.745Z,1005.64
2017-12-25T19:50:51.752Z,1005.65
2017-12-25T19:51:51.733Z,1005.67
2017-12-25T19:52:51.750Z,1005.66
2017-12-25T19:53:51.782Z,1005.66
2017-12-25T19:54:51.700Z,1005.70
2017-12-25T19:55:51.743Z,1005.68
2017-12-25T19:56:51.718Z,1005.67
2017-12-25T19:57:51.710Z,1005.65
2017-12-25T19:58:51.715Z,1005.64
2017-12-25T19:59:51.673Z,1005.62
2017-12-25T20:00:51.663Z,1005.67
2017-12-25T20:01:51.662Z,1005.58
2017-12-25T20:02:51.652Z,1005.66
2017-12-25T20:03:51.628Z,1005.63
2017-12-25T20:04:51.634Z,1005.61
2017-12-25T20:05:51.643Z,1005.59
2017-12-25T20:06:51.642Z,1005.54
2017-12-25T20:07:51.624Z,1005.57
2017-12-25T20:08:51.608Z,1005.55
2017-12-25T20:09:51.626Z,1005.47
2017-12-25T20:10:51.571Z,1005.49
2017-12-25T20:11:51.581Z,1005.51
2017-12-25T20:12:51.560Z,1005.45
2017-12-25T20:13:51.564Z,1005.49
2017-12-25T20:14:51.548Z,1005.42
2017-12-25T20:15:51.568Z,1005.41
2017-12-25T20:16:51.549Z,1005.40
2017-12-25T20:17:51.532Z,1005.37
2017-12-25T20:18:51.539Z,1005.37
2017-12-25T20:19:51.541Z,1005.39
2017-12-25T20:20:51.513Z,1005.37
2017-12-25T20:21:51.519Z,1005.38
2017-12-25T20:22:51.517Z,1005.41
2017-12-25T20:23:51.470Z,1005.44
2017-12-25T20:24:51.479Z,1005.41
2017-12-25T20:25:51.468Z,1005.38
2017-12-25T20:26:51.510Z,1005.34
2017-12-25T20:27:51.447Z,1005.31
2017-12-25T20:28:51.460Z,1005.24
2017-12-25T20:29:51.431Z,1005.24
2017-12-25T20:30:51.422Z,1005.16
2017-12-25T20:31:51.422Z,1005.13
2017-12-25T20:32:51.412Z,1005.16
2017-12-25T20:33:51.405Z,1005.08
2017-12-25T20:34:51.404Z,1005.07
2017-12-25T20:35:51.390Z,1005.06
2017-12-25T20:36:51.418Z,1005.06
2017-12-25T20:37:51.368Z,1005.04
2017-12-25T20:38:51.369Z,1005.04
2017-12-25T20:39:51.363Z,1005.01
2017-12-25T20:40:51.361Z,1005.04
2017-12-25T20:41:51.336Z,1005.11
2017-12-25T20:42:51.341Z,1005.16
2017-12-25T20:43:51.337Z,1005.08
2017-12-25T20:44:51.350Z,1005.13
2017-12-25T20:45:51.313Z,1005.10
2017-12-25T20:46:51.304Z,1005.08
2017-12-25T20:47:51.298Z,1005.06
2017-12-25T20:48:51.299Z,1005.05
2017-12-25T20:49:51.284Z,1005.04
2017-12-25T20:50:51.307Z,1005.02
2017-12-25T20:51:51.277Z,1005.05
2017-12-25T20:52:51.249Z,1005.07
2017-12-25T20:53:51.247Z,1005.05
2017-12-25T20:54:51.244Z,1005.05
2017-12-25T20:55:51.871Z,1005.07
2017-12-25T20:56:51.262Z,1005.08
2017-12-25T20:57:51.231Z,1005.08
2017-12-25T20:58:51.221Z,1005.07
2017-12-25T20:59:51.214Z,1005.06
2017-12-25T21:00:51.203Z,1005.03
2017-12-25T21:01:51.206Z,1005.03
2017-12-25T21:02:51.175Z,1004.98
2017-12-25T21:03:51.188Z,1004.97
2017-12-25T21:04:51.214Z,1004.96
2017-12-25T21:05:51.159Z,1004.96
2017-12-25T21:06:51.149Z,1004.97
2017-12-25T21:07:51.144Z,1004.90
2017-12-25T21:08:51.135Z,1004.92
2017-12-25T21:09:51.139Z,1004.88
2017-12-25T21:10:51.129Z,1004.94
2017-12-25T21:11:51.123Z,1004.85
2017-12-25T21:12:51.112Z,1004.88
2017-12-25T21:13:51.100Z,1004.84
2017-12-25T21:14:51.112Z,1004.80
2017-12-25T21:15:51.078Z,1004.74
2017-12-25T21:16:51.083Z,1004.71
2017-12-25T21:17:51.066Z,1004.74
2017-12-25T21:18:51.070Z,1004.73
2017-12-25T21:19:51.041Z,1004.74
2017-12-25T21:20:51.042Z,1004.78
2017-12-25T21:21:51.029Z,1004.71
2017-12-25T21:22:51.023Z,1004.70
2017-12-25T21:23:51.030Z,1004.69
2017-12-25T21:24:51.010Z,1004.69
2017-12-25T21:25:51.023Z,1004.63
2017-12-25T21:26:50.988Z,1004.63
2017-12-25T21:27:50.990Z,1004.56
2017-12-25T21:28:50.978Z,1004.55
2017-12-25T21:29:50.988Z,1004.54
2017-12-25T21:30:50.961Z,1004.57
2017-12-25T21:31:50.968Z,1004.52
2017-12-25T21:32:50.967Z,1004.53
2017-12-25T21:33:50.949Z,1004.48
2017-12-25T21:34:50.929Z,1004.38
2017-12-25T21:35:50.921Z,1004.36
2017-12-25T21:36:50.914Z,1004.38
2017-12-25T21:37:50.914Z,1004.39
2017-12-25T21:38:50.903Z,1004.41
2017-12-25T21:39:50.891Z,1004.35
2017-12-25T21:40:50.893Z,1004.32
2017-12-25T21:41:50.874Z,1004.29
2017-12-25T21:42:50.872Z,1004.30
2017-12-25T21:43:50.867Z,1004.25
2017-12-25T21:44:50.874Z,1004.26
2017-12-25T21:45:50.849Z,1004.28
2017-12-25T21:46:50.827Z,1004.26
2017-12-25T21:47:50.829Z,1004.27
2017-12-25T21:48:50.812Z,1004.25
2017-12-25T21:49:50.815Z,1004.21
2017-12-25T21:50:50.800Z,1004.19
2017-12-25T21:51:50.801Z,1004.16
2017-12-25T21:52:50.799Z,1004.11
2017-12-25T21:53:50.823Z,1004.04
2017-12-25T21:54:50.789Z,1003.94
2017-12-25T21:55:50.770Z,1003.92
2017-12-25T21:56:50.755Z,1003.93
2017-12-25T21:57:50.756Z,1003.91
2017-12-25T21:58:50.750Z,1003.90
2017-12-25T21:59:50.726Z,1003.90
2017-12-25T22:00:50.725Z,1003.87
2017-12-25T22:01:50.721Z,1003.88
2017-12-25T22:02:50.710Z,1003.81
2017-12-25T22:03:50.706Z,1003.76
2017-12-25T22:04:50.689Z,1003.75
2017-12-25T22:05:50.682Z,1003.74
2017-12-25T22:06:50.673Z,1003.79
2017-12-25T22:07:50.674Z,1003.79
2017-12-25T22:08:50.667Z,1003.77
2017-12-25T22:09:50.649Z,1003.72
2017-12-25T22:10:50.649Z,1003.66
2017-12-25T22:11:50.653Z,1003.59
2017-12-25T22:12:50.624Z,1003.58
2017-12-25T22:13:50.627Z,1003.46
2017-12-25T22:14:51.090Z,1003.40
2017-12-25T22:15:50.607Z,1003.39
2017-12-25T22:16:50.589Z,1003.35
2017-12-25T22:17:50.576Z,1003.41
2017-12-25T22:18:50.585Z,1003.42
2017-12-25T22:19:50.603Z,1003.40
2017-12-25T22:20:50.557Z,1003.37
2017-12-25T22:21:50.557Z,1003.38
2017-12-25T22:22:50.547Z,1003.38
2017-12-25T22:23:50.555Z,1003.39
2017-12-25T22:24:50.528Z,1003.44
2017-12-25T22:25:50.529Z,1003.41
2017-12-25T22:26:50.517Z,1003.42
2017-12-25T22:27:50.508Z,1003.44
2017-12-25T22:28:50.498Z,1003.43
2017-12-25T22:29:50.496Z,1003.41
2017-12-25T22:30:50.495Z,1003.37
2017-12-25T22:31:50.484Z,1003.42
2017-12-25T22:32:50.475Z,1003.42
2017-12-25T22:33:50.451Z,1003.43
2017-12-25T22:34:50.447Z,1003.37
2017-12-25T22:35:50.454Z,1003.38
2017-12-25T22:36:50.439Z,1003.36
2017-12-25T22:37:50.770Z,1003.27
2017-12-25T22:38:50.685Z,1003.25
2017-12-25T22:39:50.589Z,1003.24
2017-12-25T22:40:50.444Z,1003.24
2017-12-25T22:41:50.390Z,1003.21
2017-12-25T22:42:50.375Z,1003.23
2017-12-25T22:43:50.382Z,1003.26
2017-12-25T22:44:50.358Z,1003.27
2017-12-25T22:45:50.349Z,1003.25
2017-12-25T22:46:50.350Z,1003.20
2017-12-25T22:47:50.333Z,1003.15
2017-12-25T22:48:50.353Z,1003.14
2017-12-25T22:49:50.313Z,1003.15
2017-12-25T22:50:50.322Z,1003.11
2017-12-25T22:51:50.345Z,1003.09
2017-12-25T22:52:50.303Z,1003.10
2017-12-25T22:53:50.329Z,1003.11
2017-12-25T22:54:50.273Z,1003.04
2017-12-25T22:55:50.290Z,1003.07
2017-12-25T22:56:50.251Z,1003.06
2017-12-25T22:57:50.249Z,1003.04
2017-12-25T22:58:50.237Z,1003.06
2017-12-25T22:59:50.229Z,1003.08
2017-12-25T23:00:50.217Z,1003.06
2017-12-25T23:01:50.216Z,1002.99
2017-12-25T23:02:50.211Z,1002.97
2017-12-25T23:03:50.202Z,1002.99
2017-12-25T23:04:50.186Z,1002.93
2017-12-25T23:05:50.184Z,1002.93
2017-12-25T23:06:50.160Z,1002.89
2017-12-25T23:07:50.232Z,1002.90
2017-12-25T23:08:50.148Z,1002.93
2017-12-25T23:09:50.160Z,1002.90
2017-12-25T23:10:50.150Z,1002.88
2017-12-25T23:11:51.684Z,1002.91
2017-12-25T23:12:50.110Z,1002.90
2017-12-25T23:15:35.029Z,1002.91
2017-12-25T23:16:34.903Z,1002.87
2017-12-25T23:19:17.887Z,1002.86
2017-12-25T23:20:17.866Z,1002.87
2017-12-25T23:23:02.628Z,1002.84
2017-12-25T23:24:02.623Z,1002.80
2017-12-25T23:26:47.632Z,1002.72
2017-12-25T23:27:47.391Z,1002.73
2017-12-25T23:30:31.513Z,1002.63
2017-12-25T23:31:31.146Z,1002.56
2017-12-25T23:34:14.225Z,1002.50
2017-12-25T23:35:14.106Z,1002.45
2017-12-25T23:37:57.551Z,1002.43
2017-12-25T23:38:57.449Z,1002.39
2017-12-25T23:41:41.271Z,1002.41
2017-12-25T23:42:41.238Z,1002.45
2017-12-25T23:45:24.692Z,1002.24
2017-12-25T23:46:24.582Z,1002.24
2017-12-25T23:49:08.949Z,1002.20
2017-12-25T23:50:08.876Z,1002.14
2017-12-25T23:52:53.272Z,1002.03
2017-12-25T23:53:53.300Z,1002.00
2017-12-25T23:56:36.366Z,1001.93
2017-12-25T23:57:36.240Z,1001.87
